createdAt,value
2023-02-08T00:01:47.521Z,20.20
2023-02-08T00:04:18.329Z,20.30
2023-02-08T00:06:49.219Z,20.40
2023-02-08T00:09:21.369Z,20.40
2023-02-08T00:11:52.286Z,20.40
2023-02-08T00:14:23.129Z,20.40
2023-02-08T00:16:53.845Z,20.40
2023-02-08T00:19:24.751Z,20.30
2023-02-08T00:21:55.425Z,20.30
2023-02-08T00:24:26.115Z,20.20
2023-02-08T00:26:57.948Z,20.20
2023-02-08T00:29:28.841Z,20.20
2023-02-08T00:32:01.723Z,20.20
2023-02-08T00:34:32.848Z,20.20
2023-02-08T00:37:04.028Z,20.20
2023-02-08T00:39:36.943Z,20.30
2023-02-08T00:42:08.131Z,20.30
2023-02-08T00:44:39.115Z,20.30
2023-02-08T00:47:10.170Z,20.30
2023-02-08T00:49:41.234Z,20.40
2023-02-08T00:54:56.731Z,20.30
2023-02-08T00:57:27.801Z,20.30
2023-02-08T00:59:58.674Z,20.30
2023-02-08T01:02:32.329Z,20.30
2023-02-08T01:05:03.280Z,20.30
2023-02-08T01:07:34.187Z,20.30
2023-02-08T01:10:05.610Z,20.30
2023-02-08T01:12:38.895Z,20.30
2023-02-08T01:15:12.229Z,20.30
2023-02-08T01:17:43.724Z,20.30
2023-02-08T01:20:15.180Z,20.30
2023-02-08T01:22:45.901Z,20.40
2023-02-08T01:25:16.961Z,20.40
2023-02-08T01:27:47.717Z,20.50
2023-02-08T01:30:20.088Z,20.60
2023-02-08T01:32:50.733Z,20.60
2023-02-08T01:35:22.659Z,20.60
2023-02-08T01:37:53.637Z,20.70
2023-02-08T01:40:28.849Z,20.70
2023-02-08T01:42:59.539Z,20.80
2023-02-08T01:45:33.756Z,20.90
2023-02-08T01:48:27.241Z,20.90
2023-02-08T01:51:11.759Z,20.90
2023-02-08T01:53:44.115Z,20.90
2023-02-08T01:56:38.114Z,20.90
2023-02-08T01:59:19.778Z,21.00
2023-02-08T02:01:56.187Z,21.10
2023-02-08T02:04:28.301Z,21.20
2023-02-08T02:07:03.354Z,21.10
2023-02-08T02:10:01.149Z,21.10
2023-02-08T02:12:34.934Z,21.20
2023-02-08T02:15:07.105Z,21.20
2023-02-08T02:17:41.286Z,21.10
2023-02-08T02:20:24.450Z,21.10
2023-02-08T02:23:13.546Z,21.00
2023-02-08T02:26:12.582Z,21.00
2023-02-08T02:29:16.283Z,21.00
2023-02-08T02:32:02.952Z,21.10
2023-02-08T02:35:08.931Z,21.20
2023-02-08T02:38:10.401Z,21.30
2023-02-08T02:41:00.979Z,21.40
2023-02-08T02:43:50.228Z,21.40
2023-02-08T02:46:50.884Z,21.50
2023-02-08T02:49:34.059Z,21.60
2023-02-08T02:52:08.155Z,21.70
2023-02-08T02:54:47.044Z,21.70
2023-02-08T02:57:24.270Z,21.80
2023-02-08T02:59:55.483Z,21.80
2023-02-08T03:02:27.530Z,21.80
2023-02-08T03:05:01.140Z,21.90
2023-02-08T03:07:41.094Z,22.00
2023-02-08T03:10:46.332Z,22.10
2023-02-08T03:13:52.119Z,22.10
2023-02-08T03:16:41.022Z,22.20
2023-02-08T03:19:14.833Z,22.20
2023-02-08T03:22:15.013Z,22.20
2023-02-08T03:25:05.702Z,22.10
2023-02-08T03:28:11.755Z,22.10
2023-02-08T03:31:06.440Z,22.00
2023-02-08T03:33:44.067Z,21.90
2023-02-08T03:36:36.947Z,21.90
2023-02-08T03:39:13.499Z,21.90
2023-02-08T03:41:47.730Z,22.10
2023-02-08T03:44:35.826Z,22.10
2023-02-08T03:47:26.754Z,22.10
2023-02-08T03:50:01.066Z,22.10
2023-02-08T03:52:35.340Z,22.20
2023-02-08T03:55:12.765Z,22.30
2023-02-08T03:57:55.361Z,22.50
2023-02-08T04:00:29.266Z,22.70
2023-02-08T04:03:09.479Z,23.10
2023-02-08T04:05:41.777Z,23.30
2023-02-08T04:08:13.083Z,23.30
2023-02-08T04:10:51.020Z,23.20
2023-02-08T04:13:21.982Z,23.20
2023-02-08T04:15:52.860Z,23.10
2023-02-08T04:18:23.839Z,23.00
2023-02-08T04:20:54.711Z,23.00
2023-02-08T04:23:26.925Z,22.90
2023-02-08T04:25:57.900Z,22.90
2023-02-08T04:28:30.147Z,22.90
2023-02-08T04:31:00.933Z,23.00
2023-02-08T04:33:31.934Z,23.10
2023-02-08T04:36:02.710Z,23.00
2023-02-08T04:38:35.299Z,22.90
2023-02-08T04:41:07.682Z,22.90
2023-02-08T04:43:38.848Z,23.10
2023-02-08T04:46:09.928Z,23.20
2023-02-08T04:48:42.117Z,23.20
2023-02-08T04:51:12.806Z,23.20
2023-02-08T04:53:43.586Z,23.20
2023-02-08T04:56:14.228Z,23.00
2023-02-08T04:58:45.089Z,22.90
2023-02-08T05:01:17.820Z,23.00
2023-02-08T05:03:49.247Z,23.00
2023-02-08T05:06:20.044Z,22.90
2023-02-08T05:08:50.707Z,22.90
2023-02-08T05:11:26.818Z,22.90
2023-02-08T05:13:58.023Z,22.90
2023-02-08T05:16:28.851Z,23.00
2023-02-08T05:19:00.310Z,23.10
2023-02-08T05:21:32.156Z,23.10
2023-02-08T05:24:02.417Z,23.20
2023-02-08T05:26:32.879Z,23.30
2023-02-08T05:29:03.503Z,23.30
2023-02-08T05:31:38.389Z,23.30
2023-02-08T05:34:09.402Z,23.30
2023-02-08T05:36:40.027Z,23.40
2023-02-08T05:39:10.871Z,23.40
2023-02-08T05:41:41.423Z,23.40
2023-02-08T05:44:12.515Z,23.30
2023-02-08T05:46:42.827Z,23.20
2023-02-08T05:49:13.667Z,23.10
2023-02-08T05:51:44.369Z,23.10
2023-02-08T05:54:15.459Z,23.00
2023-02-08T05:56:47.977Z,22.90
2023-02-08T05:59:18.687Z,22.80
2023-02-08T06:01:50.536Z,22.70
2023-02-08T06:04:21.892Z,22.70
2023-02-08T06:06:52.697Z,22.70
2023-02-08T06:09:23.669Z,22.60
2023-02-08T06:11:54.255Z,22.50
2023-02-08T06:14:25.726Z,22.50
2023-02-08T06:16:56.831Z,22.30
2023-02-08T06:19:27.475Z,22.20
2023-02-08T06:21:58.678Z,22.10
2023-02-08T06:24:29.649Z,22.00
2023-02-08T06:27:00.591Z,22.00
2023-02-08T06:29:31.288Z,22.00
2023-02-08T06:32:02.055Z,22.00
2023-02-08T06:34:33.056Z,21.80
2023-02-08T06:37:04.392Z,21.80
2023-02-08T06:39:35.296Z,21.70
2023-02-08T06:42:05.609Z,21.60
2023-02-08T06:44:36.276Z,21.50
2023-02-08T06:47:07.555Z,21.50
2023-02-08T06:49:39.213Z,21.40
2023-02-08T06:52:10.113Z,21.20
2023-02-08T06:54:41.005Z,21.20
2023-02-08T06:57:15.121Z,21.10
2023-02-08T06:59:45.557Z,21.00
2023-02-08T07:02:18.526Z,21.00
2023-02-08T07:04:49.960Z,21.10
2023-02-08T07:07:20.990Z,21.10
2023-02-08T07:09:52.558Z,21.00
2023-02-08T07:12:23.361Z,20.90
2023-02-08T07:14:54.788Z,20.90
2023-02-08T07:17:25.556Z,20.80
2023-02-08T07:19:55.955Z,20.80
2023-02-08T07:22:26.483Z,20.70
2023-02-08T07:24:57.484Z,20.60
2023-02-08T07:27:27.790Z,20.60
2023-02-08T07:29:58.200Z,20.50
2023-02-08T07:32:29.377Z,20.50
2023-02-08T07:35:00.453Z,20.50
2023-02-08T07:37:31.704Z,20.50
2023-02-08T07:40:02.827Z,20.50
2023-02-08T07:42:34.500Z,20.50
2023-02-08T07:45:06.660Z,20.40
2023-02-08T07:47:37.338Z,20.40
2023-02-08T07:50:09.558Z,20.40
2023-02-08T07:52:41.210Z,20.40
2023-02-08T07:55:14.076Z,20.40
2023-02-08T07:57:45.452Z,20.30
2023-02-08T08:00:17.872Z,20.20
2023-02-08T08:02:48.545Z,20.20
2023-02-08T08:05:19.654Z,20.10
2023-02-08T08:07:50.215Z,20.20
2023-02-08T08:10:20.621Z,20.10
2023-02-08T08:12:50.877Z,20.10
2023-02-08T08:15:21.570Z,20.00
2023-02-08T08:17:52.172Z,20.00
2023-02-08T08:20:23.309Z,19.90
2023-02-08T08:22:53.617Z,19.80
2023-02-08T08:25:24.234Z,19.80
2023-02-08T08:27:54.915Z,19.90
2023-02-08T08:30:26.429Z,19.90
2023-02-08T08:32:57.170Z,19.80
2023-02-08T08:35:27.768Z,19.80
2023-02-08T08:37:58.451Z,19.80
2023-02-08T08:40:31.475Z,19.80
2023-02-08T08:43:02.116Z,19.80
2023-02-08T08:45:32.714Z,19.80
2023-02-08T08:48:04.066Z,19.70
2023-02-08T08:50:34.794Z,19.70
2023-02-08T08:53:05.630Z,19.60
2023-02-08T08:55:39.022Z,19.50
2023-02-08T08:58:09.825Z,19.50
2023-02-08T09:00:41.776Z,19.40
2023-02-08T09:03:13.008Z,19.40
2023-02-08T09:05:43.829Z,19.40
2023-02-08T09:08:26.169Z,19.50
2023-02-08T09:10:57.616Z,19.50
2023-02-08T09:13:28.644Z,19.50
2023-02-08T09:16:02.396Z,19.60
2023-02-08T09:18:33.453Z,19.50
2023-02-08T09:21:10.292Z,19.50
2023-02-08T09:23:41.599Z,19.50
2023-02-08T09:26:15.282Z,19.50
2023-02-08T09:28:46.457Z,19.50
2023-02-08T09:31:26.155Z,19.60
2023-02-08T09:33:59.548Z,19.60
2023-02-08T09:36:36.393Z,19.60
2023-02-08T09:39:19.727Z,19.50
2023-02-08T09:42:04.881Z,19.40
2023-02-08T09:45:17.112Z,19.40
2023-02-08T09:48:00.519Z,19.40
2023-02-08T09:50:45.227Z,19.40
2023-02-08T09:53:25.348Z,19.40
2023-02-08T09:56:06.233Z,19.40
2023-02-08T09:58:47.565Z,19.40
2023-02-08T10:01:25.394Z,19.50
2023-02-08T10:04:26.407Z,19.50
2023-02-08T10:06:57.397Z,19.50
2023-02-08T10:09:29.919Z,19.50
2023-02-08T10:12:27.926Z,19.50
2023-02-08T10:15:23.572Z,19.50
2023-02-08T10:17:59.157Z,19.50
2023-02-08T10:20:43.328Z,19.50
2023-02-08T10:23:40.153Z,19.50
2023-02-08T10:26:11.780Z,19.40
2023-02-08T10:29:04.653Z,19.40
2023-02-08T10:31:47.215Z,19.40
2023-02-08T10:34:38.613Z,19.40
2023-02-08T10:37:40.882Z,19.30
2023-02-08T10:40:27.060Z,19.30
2023-02-08T10:43:21.812Z,19.30
2023-02-08T10:46:04.339Z,19.30
2023-02-08T10:48:46.324Z,19.30
2023-02-08T10:51:25.004Z,19.30
2023-02-08T10:53:56.243Z,19.30
2023-02-08T10:56:48.730Z,19.30
2023-02-08T10:59:33.648Z,19.30
2023-02-08T11:02:04.315Z,19.30
2023-02-08T11:04:34.769Z,19.30
2023-02-08T11:07:23.171Z,19.30
2023-02-08T11:09:55.303Z,19.30
2023-02-08T11:12:26.715Z,19.30
2023-02-08T11:14:57.818Z,19.30
2023-02-08T11:17:32.394Z,19.30
2023-02-08T11:20:04.447Z,19.20
2023-02-08T11:22:36.195Z,19.20
2023-02-08T11:25:09.699Z,19.20
2023-02-08T11:27:50.387Z,19.10
2023-02-08T11:30:27.611Z,19.10
2023-02-08T11:33:20.009Z,19.10
2023-02-08T11:36:16.966Z,19.10
2023-02-08T11:38:47.704Z,19.10
2023-02-08T11:41:22.942Z,19.10
2023-02-08T11:44:08.343Z,19.20
2023-02-08T11:46:43.742Z,19.20
2023-02-08T11:49:28.659Z,19.20
2023-02-08T11:51:59.960Z,19.10
2023-02-08T11:54:45.934Z,19.10
2023-02-08T11:57:19.474Z,19.10
2023-02-08T11:59:51.795Z,19.10
2023-02-08T12:02:42.733Z,19.20
2023-02-08T12:05:18.003Z,19.20
2023-02-08T12:07:58.156Z,19.20
2023-02-08T12:10:44.812Z,19.10
2023-02-08T12:13:18.866Z,19.10
2023-02-08T12:16:13.556Z,18.90
2023-02-08T12:19:01.505Z,18.90
2023-02-08T12:21:50.329Z,19.00
2023-02-08T12:24:57.809Z,19.00
2023-02-08T12:27:51.837Z,19.00
2023-02-08T12:30:42.717Z,18.90
2023-02-08T12:33:31.700Z,18.90
2023-02-08T12:36:33.823Z,18.80
2023-02-08T12:39:46.201Z,18.80
2023-02-08T12:42:33.222Z,18.80
2023-02-08T12:45:23.710Z,18.80
2023-02-08T12:48:33.986Z,18.80
2023-02-08T12:51:25.994Z,18.80
2023-02-08T12:54:05.651Z,18.80
2023-02-08T12:56:43.539Z,18.80
2023-02-08T12:59:40.141Z,18.80
2023-02-08T13:02:33.743Z,18.90
2023-02-08T13:05:09.709Z,18.90
2023-02-08T13:07:45.159Z,18.90
2023-02-08T13:10:41.563Z,18.90
2023-02-08T13:13:29.338Z,18.90
2023-02-08T13:16:23.940Z,18.90
2023-02-08T13:18:57.862Z,18.90
2023-02-08T13:21:39.688Z,19.00
2023-02-08T13:24:40.187Z,19.00
2023-02-08T13:27:24.703Z,19.00
2023-02-08T13:29:55.710Z,19.00
2023-02-08T13:32:38.238Z,19.00
2023-02-08T13:35:32.667Z,18.90
2023-02-08T13:38:27.579Z,18.90
2023-02-08T13:41:16.854Z,18.90
2023-02-08T13:43:56.396Z,18.90
2023-02-08T13:46:29.700Z,19.00
2023-02-08T13:49:04.595Z,19.00
2023-02-08T13:51:35.229Z,19.00
2023-02-08T13:54:23.759Z,19.00
2023-02-08T13:56:55.891Z,19.00
2023-02-08T13:59:44.251Z,19.00
2023-02-08T14:02:26.435Z,19.00
2023-02-08T14:05:46.106Z,19.00
2023-02-08T14:08:39.788Z,19.00
2023-02-08T14:11:37.730Z,19.00
2023-02-08T14:14:09.795Z,19.00
2023-02-08T14:17:03.833Z,19.00
2023-02-08T14:19:42.899Z,19.00
2023-02-08T14:22:17.372Z,18.90
2023-02-08T14:25:02.432Z,18.90
2023-02-08T14:27:46.650Z,18.90
2023-02-08T14:30:20.389Z,18.90
2023-02-08T14:33:13.834Z,18.90
2023-02-08T14:35:57.882Z,18.90
2023-02-08T14:38:46.312Z,18.90
2023-02-08T14:41:47.427Z,18.90
2023-02-08T14:44:51.515Z,18.80
2023-02-08T14:47:45.132Z,18.70
2023-02-08T14:50:31.996Z,18.70
2023-02-08T14:53:23.274Z,18.70
2023-02-08T14:56:09.176Z,18.60
2023-02-08T14:59:15.278Z,18.60
2023-02-08T15:01:55.610Z,18.60
2023-02-08T15:04:26.387Z,18.60
2023-02-08T15:07:18.463Z,18.50
2023-02-08T15:09:49.037Z,18.50
2023-02-08T15:12:58.732Z,18.50
2023-02-08T15:15:43.143Z,18.50
2023-02-08T15:18:27.168Z,18.50
2023-02-08T15:21:07.430Z,18.50
2023-02-08T15:23:40.807Z,18.50
2023-02-08T15:26:25.868Z,18.60
2023-02-08T15:28:56.372Z,18.60
2023-02-08T15:31:32.741Z,18.50
2023-02-08T15:34:04.482Z,18.40
2023-02-08T15:36:39.033Z,18.20
2023-02-08T15:39:30.487Z,18.20
2023-02-08T15:42:01.947Z,18.20
2023-02-08T15:44:34.658Z,18.20
2023-02-08T15:47:12.203Z,18.20
2023-02-08T15:49:48.203Z,18.20
2023-02-08T15:52:22.170Z,18.30
2023-02-08T15:54:55.991Z,18.30
2023-02-08T15:57:32.832Z,18.30
2023-02-08T16:00:04.872Z,18.30
2023-02-08T16:02:39.679Z,18.20
2023-02-08T16:05:50.549Z,18.10
2023-02-08T16:08:37.311Z,17.90
2023-02-08T16:11:32.159Z,17.80
2023-02-08T16:14:27.042Z,17.60
2023-02-08T16:17:40.111Z,17.50
2023-02-08T16:20:37.913Z,17.40
2023-02-08T16:23:28.699Z,17.50
2023-02-08T16:26:21.584Z,17.50
2023-02-08T16:28:59.538Z,17.50
2023-02-08T16:31:51.506Z,17.60
2023-02-08T16:34:30.486Z,17.70
2023-02-08T16:37:01.407Z,17.60
2023-02-08T16:39:59.298Z,17.60
2023-02-08T16:42:46.714Z,17.60
2023-02-08T16:45:20.793Z,17.70
2023-02-08T16:48:18.472Z,17.70
2023-02-08T16:50:53.070Z,17.70
2023-02-08T16:53:28.137Z,17.70
2023-02-08T16:56:04.304Z,17.70
2023-02-08T16:58:34.612Z,17.60
2023-02-08T17:01:10.197Z,17.60
2023-02-08T17:03:41.251Z,17.60
2023-02-08T17:06:25.996Z,17.60
2023-02-08T17:08:56.663Z,17.50
2023-02-08T17:11:27.219Z,17.50
2023-02-08T17:14:00.352Z,17.50
2023-02-08T17:16:37.834Z,17.50
2023-02-08T17:19:18.408Z,17.40
2023-02-08T17:21:48.930Z,17.40
2023-02-08T17:24:20.064Z,17.40
2023-02-08T17:26:56.504Z,17.30
2023-02-08T17:29:27.479Z,17.30
2023-02-08T17:32:02.792Z,17.20
2023-02-08T17:34:33.562Z,17.20
2023-02-08T17:37:04.241Z,17.20
2023-02-08T17:39:41.794Z,17.10
2023-02-08T17:42:14.170Z,17.10
2023-02-08T17:44:45.096Z,17.10
2023-02-08T17:47:18.964Z,17.10
2023-02-08T17:49:49.404Z,17.00
2023-02-08T17:52:21.363Z,17.00
2023-02-08T17:54:52.413Z,17.00
2023-02-08T17:57:28.605Z,16.90
2023-02-08T18:00:10.515Z,16.90
2023-02-08T18:02:44.542Z,16.90
2023-02-08T18:05:24.970Z,16.80
2023-02-08T18:07:57.295Z,16.80
2023-02-08T18:10:31.651Z,16.80
2023-02-08T18:13:02.005Z,16.70
2023-02-08T18:15:32.413Z,16.70
2023-02-08T18:18:02.763Z,16.80
2023-02-08T18:20:34.618Z,16.90
2023-02-08T18:23:05.398Z,16.90
2023-02-08T18:25:39.456Z,16.90
2023-02-08T18:28:16.689Z,17.00
2023-02-08T18:30:47.698Z,17.00
2023-02-08T18:33:18.324Z,17.10
2023-02-08T18:35:51.372Z,17.10
2023-02-08T18:38:29.260Z,17.20
2023-02-08T18:41:01.815Z,17.20
2023-02-08T18:43:32.135Z,17.20
2023-02-08T18:46:05.361Z,17.30
2023-02-08T18:48:36.987Z,17.30
2023-02-08T18:51:09.066Z,17.30
2023-02-08T18:53:42.469Z,17.40
2023-02-08T18:56:18.411Z,17.40
2023-02-08T18:58:48.680Z,17.40
2023-02-08T19:01:22.315Z,17.40
2023-02-08T19:03:53.935Z,17.40
2023-02-08T19:06:27.203Z,17.40
2023-02-08T19:09:12.136Z,17.40
2023-02-08T19:11:43.704Z,17.40
2023-02-08T19:14:18.955Z,17.40
2023-02-08T19:16:52.572Z,17.40
2023-02-08T19:19:23.360Z,17.40
2023-02-08T19:21:55.701Z,17.50
2023-02-08T19:24:26.763Z,17.40
2023-02-08T19:26:57.589Z,17.40
2023-02-08T19:29:28.764Z,17.50
2023-02-08T19:31:59.984Z,17.50
2023-02-08T19:34:30.475Z,17.50
2023-02-08T19:37:00.791Z,17.50
2023-02-08T19:39:31.515Z,17.40
2023-02-08T19:42:01.914Z,17.40
2023-02-08T19:44:32.614Z,17.40
2023-02-08T19:47:03.427Z,17.40
2023-02-08T19:49:34.309Z,17.40
2023-02-08T19:52:05.944Z,17.40
2023-02-08T19:54:38.245Z,17.40
2023-02-08T19:57:13.714Z,17.40
2023-02-08T19:59:46.746Z,17.40
2023-02-08T20:02:20.170Z,17.30
2023-02-08T20:04:50.935Z,17.40
2023-02-08T20:07:21.242Z,17.40
2023-02-08T20:09:51.543Z,17.40
2023-02-08T20:12:22.676Z,17.40
2023-02-08T20:14:52.992Z,17.40
2023-02-08T20:17:23.336Z,17.50
2023-02-08T20:19:54.136Z,17.50
2023-02-08T20:22:24.532Z,17.50
2023-02-08T20:24:54.897Z,17.50
2023-02-08T20:27:25.880Z,17.50
2023-02-08T20:29:58.524Z,17.60
2023-02-08T20:32:29.916Z,17.50
2023-02-08T20:35:00.548Z,17.50
2023-02-08T20:37:31.352Z,17.50
2023-02-08T20:40:01.815Z,17.50
2023-02-08T20:42:32.228Z,17.50
2023-02-08T20:45:02.653Z,17.50
2023-02-08T20:47:38.724Z,17.60
2023-02-08T20:50:19.139Z,17.60
2023-02-08T20:52:51.391Z,17.60
2023-02-08T20:55:22.155Z,17.60
2023-02-08T20:57:55.162Z,17.60
2023-02-08T21:00:33.540Z,17.50
2023-02-08T21:03:12.662Z,17.50
2023-02-08T21:05:43.385Z,17.50
2023-02-08T21:08:14.450Z,17.50
2023-02-08T21:10:45.477Z,17.50
2023-02-08T21:13:16.340Z,17.50
2023-02-08T21:15:47.675Z,17.50
2023-02-08T21:18:18.334Z,17.50
2023-02-08T21:20:48.593Z,17.50
2023-02-08T21:23:19.492Z,17.50
2023-02-08T21:25:49.817Z,17.50
2023-02-08T21:28:21.848Z,17.50
2023-02-08T21:31:04.838Z,17.50
2023-02-08T21:33:40.821Z,17.50
2023-02-08T21:36:17.688Z,17.50
2023-02-08T21:38:50.258Z,17.60
2023-02-08T21:41:39.151Z,17.70
2023-02-08T21:44:14.068Z,17.70
2023-02-08T21:46:44.782Z,17.80
2023-02-08T21:49:37.156Z,17.80
2023-02-08T21:55:20.947Z,17.90
2023-02-08T21:57:55.394Z,17.90
2023-02-08T22:00:27.913Z,18.00
2023-02-08T22:02:58.748Z,17.90
2023-02-08T22:05:49.785Z,17.90
2023-02-08T22:08:26.572Z,17.90
2023-02-08T22:11:07.635Z,18.00
2023-02-08T22:13:42.032Z,18.00
2023-02-08T22:16:12.793Z,18.00
2023-02-08T22:18:45.670Z,18.00
2023-02-08T22:21:16.041Z,18.00
2023-02-08T22:23:46.345Z,18.00
2023-02-08T22:26:19.061Z,18.00
2023-02-08T22:28:49.942Z,18.00
2023-02-08T22:31:21.952Z,18.00
2023-02-08T22:33:56.964Z,18.10
2023-02-08T22:36:27.300Z,18.10
2023-02-08T22:38:58.335Z,18.10
2023-02-08T22:41:35.462Z,18.10
2023-02-08T22:44:06.325Z,18.00
2023-02-08T22:46:38.656Z,18.00
2023-02-08T22:49:09.038Z,17.90
2023-02-08T22:51:44.697Z,17.80
2023-02-08T22:54:15.609Z,17.80
2023-02-08T22:56:52.812Z,17.80
2023-02-08T22:59:25.398Z,17.90
2023-02-08T23:01:57.315Z,18.00
2023-02-08T23:04:28.650Z,18.10
2023-02-08T23:07:04.772Z,18.10
2023-02-08T23:09:40.627Z,18.20
2023-02-08T23:12:11.242Z,18.20
2023-02-08T23:14:42.673Z,18.20
2023-02-08T23:17:20.518Z,18.30
2023-02-08T23:19:51.011Z,18.40
2023-02-08T23:22:21.852Z,18.40
2023-02-08T23:24:55.715Z,18.50
2023-02-08T23:27:28.223Z,18.50
2023-02-08T23:30:06.203Z,18.70
2023-02-08T23:32:41.278Z,18.80
2023-02-08T23:35:16.303Z,18.90
2023-02-08T23:37:47.188Z,19.00
2023-02-08T23:40:18.422Z,19.10
2023-02-08T23:42:49.188Z,19.10
2023-02-08T23:45:32.299Z,19.20
2023-02-08T23:48:10.495Z,19.10
2023-02-08T23:50:46.322Z,19.10
2023-02-08T23:53:17.359Z,19.10
2023-02-08T23:55:48.255Z,19.10
2023-02-08T23:58:20.368Z,19.10
